createdAt,value
2018-06-10T00:00:26.137Z,13.2
2018-06-10T00:01:27.136Z,13.2
2018-06-10T00:02:28.137Z,13.2
2018-06-10T00:03:29.131Z,13.2
2018-06-10T00:04:30.133Z,13.2
2018-06-10T00:05:31.131Z,13.2
2018-06-10T00:06:32.134Z,13.2
2018-06-10T00:07:33.150Z,13.2
2018-06-10T00:08:34.121Z,13.2
2018-06-10T00:09:35.128Z,13.2
2018-06-10T00:10:35.988Z,13.2
2018-06-10T00:11:37.120Z,13.2
2018-06-10T00:12:38.125Z,13.2
2018-06-10T00:13:39.119Z,13.2
2018-06-10T00:14:40.124Z,13.2
2018-06-10T00:15:41.216Z,13.2
2018-06-10T00:16:42.120Z,13.2
2018-06-10T00:17:43.116Z,13.2
2018-06-10T00:18:44.127Z,13.2
2018-06-10T00:19:45.119Z,13.2
2018-06-10T00:20:46.276Z,13.2
2018-06-10T00:21:47.109Z,13.2
2018-06-10T00:22:48.108Z,13.2
2018-06-10T00:23:49.109Z,13.2
2018-06-10T00:24:50.106Z,13.2
2018-06-10T00:25:51.110Z,13.2
2018-06-10T00:26:52.106Z,13.2
2018-06-10T00:27:52.923Z,13.2
2018-06-10T00:28:54.113Z,13.2
2018-06-10T00:29:55.099Z,13.2
2018-06-10T00:30:56.103Z,13.2
2018-06-10T00:31:56.913Z,13.2
2018-06-10T00:32:58.105Z,13.2
2018-06-10T00:33:59.106Z,13.2
2018-06-10T00:35:00.092Z,13.2
2018-06-10T00:36:01.102Z,13.2
2018-06-10T00:37:02.105Z,13.2
2018-06-10T00:38:03.094Z,13.2
2018-06-10T00:39:04.091Z,13.2
2018-06-10T00:40:05.091Z,13.2
2018-06-10T00:41:06.116Z,13.2
2018-06-10T00:42:07.093Z,13.2
2018-06-10T00:43:08.087Z,13.2
2018-06-10T00:44:09.087Z,13.2
2018-06-10T00:45:10.082Z,13.2
2018-06-10T00:46:11.232Z,13.2
2018-06-10T00:47:12.084Z,13.2
2018-06-10T00:48:13.082Z,13.2
2018-06-10T00:49:14.080Z,13.2
2018-06-10T00:50:14.800Z,13.2
2018-06-10T00:51:16.086Z,13.2
2018-06-10T00:52:17.085Z,13.2
2018-06-10T00:53:18.091Z,13.2
2018-06-10T00:54:19.075Z,13.2
2018-06-10T00:55:20.087Z,13.2
2018-06-10T00:56:21.073Z,13.2
2018-06-10T00:57:22.076Z,13.2
2018-06-10T00:58:23.067Z,13.2
2018-06-10T00:59:24.071Z,13.2
2018-06-10T01:00:24.781Z,13.2
2018-06-10T01:01:26.216Z,13.2
2018-06-10T01:02:27.065Z,13.2
2018-06-10T01:03:28.064Z,13.2
2018-06-10T01:04:29.079Z,13.2
2018-06-10T01:05:30.064Z,13.2
2018-06-10T01:06:31.065Z,13.2
2018-06-10T01:07:32.065Z,13.2
2018-06-10T01:08:33.060Z,13.2
2018-06-10T01:09:34.057Z,13.2
2018-06-10T01:10:35.061Z,13.2
2018-06-10T01:11:36.160Z,13.2
2018-06-10T01:12:37.070Z,13.2
2018-06-10T01:13:38.055Z,13.2
2018-06-10T01:14:39.051Z,13.2
2018-06-10T01:15:40.065Z,13.2
2018-06-10T01:16:41.065Z,13.2
2018-06-10T01:17:42.043Z,13.2
2018-06-10T01:18:43.049Z,13.2
2018-06-10T01:19:44.044Z,13.2
2018-06-10T01:20:44.767Z,13.2
2018-06-10T01:21:46.049Z,13.2
2018-06-10T01:22:47.047Z,13.2
2018-06-10T01:23:48.035Z,13.2
2018-06-10T01:24:49.043Z,13.2
2018-06-10T01:25:50.043Z,13.2
2018-06-10T01:26:51.064Z,13.2
2018-06-10T01:27:52.036Z,13.2
2018-06-10T01:28:53.039Z,13.2
2018-06-10T01:29:54.047Z,13.2
2018-06-10T01:30:55.032Z,13.2
2018-06-10T01:31:56.038Z,13.2
2018-06-10T01:32:57.032Z,13.2
2018-06-10T01:33:58.029Z,13.2
2018-06-10T01:34:58.746Z,13.2
2018-06-10T01:35:59.746Z,13.2
2018-06-10T01:37:01.029Z,13.2
2018-06-10T01:38:01.740Z,13.2
2018-06-10T01:39:03.036Z,13.2
2018-06-10T01:40:04.025Z,13.2
2018-06-10T01:41:05.025Z,13.2
2018-06-10T01:42:06.023Z,13.2
2018-06-10T01:43:07.016Z,13.2
2018-06-10T01:44:08.013Z,13.2
2018-06-10T01:45:09.021Z,13.2
2018-06-10T01:46:10.034Z,13.2
2018-06-10T01:47:11.030Z,13.2
2018-06-10T01:48:12.013Z,13.2
2018-06-10T01:49:13.013Z,13.2
2018-06-10T01:50:14.016Z,13.2
2018-06-10T01:51:15.018Z,13.2
2018-06-10T01:52:16.167Z,13.2
2018-06-10T01:53:17.009Z,13.2
2018-06-10T01:54:18.006Z,13.2
2018-06-10T01:55:19.011Z,13.2
2018-06-10T01:56:20.001Z,13.2
2018-06-10T01:57:21.002Z,13.2
2018-06-10T01:58:21.714Z,13.2
2018-06-10T01:59:22.999Z,13.2
2018-06-10T02:00:24.007Z,13.2
2018-06-10T02:01:25.003Z,13.2
2018-06-10T02:02:25.995Z,13.2
2018-06-10T02:03:27.001Z,13.2
2018-06-10T02:04:27.995Z,13.2
2018-06-10T02:05:28.991Z,13.2
2018-06-10T02:06:29.991Z,13.2
2018-06-10T02:07:30.999Z,13.2
2018-06-10T02:08:31.999Z,13.2
2018-06-10T02:09:32.998Z,13.2
2018-06-10T02:10:33.991Z,13.2
2018-06-10T02:11:34.986Z,13.2
2018-06-10T02:12:36.134Z,13.2
2018-06-10T02:13:36.999Z,13.2
2018-06-10T02:14:37.983Z,13.2
2018-06-10T02:15:38.984Z,13.2
2018-06-10T02:16:39.980Z,13.2
2018-06-10T02:17:40.698Z,13.2
2018-06-10T02:18:41.982Z,13.2
2018-06-10T02:19:42.987Z,13.2
2018-06-10T02:20:43.699Z,13.2
2018-06-10T02:21:44.993Z,13.2
2018-06-10T02:22:45.967Z,13.2
2018-06-10T02:23:46.976Z,13.2
2018-06-10T02:24:47.983Z,13.2
2018-06-10T02:25:48.976Z,13.2
2018-06-10T02:26:49.977Z,13.2
2018-06-10T02:27:50.972Z,13.2
2018-06-10T02:28:51.971Z,13.2
2018-06-10T02:29:52.971Z,13.2
2018-06-10T02:30:53.970Z,13.2
2018-06-10T02:31:54.977Z,13.2
2018-06-10T02:32:55.978Z,13.2
2018-06-10T02:33:56.962Z,13.2
2018-06-10T02:34:57.969Z,13.2
2018-06-10T02:35:59.004Z,13.2
2018-06-10T02:36:59.970Z,13.2
2018-06-10T02:38:00.959Z,13.2
2018-06-10T02:39:01.976Z,13.2
2018-06-10T02:40:02.971Z,13.2
2018-06-10T02:41:03.959Z,13.2
2018-06-10T02:42:05.886Z,13.2
2018-06-10T02:43:06.165Z,13.2
2018-06-10T02:44:06.951Z,13.2
2018-06-10T02:45:08.875Z,13.2
2018-06-10T02:46:08.665Z,13.2
2018-06-10T02:47:09.945Z,13.2
2018-06-10T02:48:11.045Z,13.2
2018-06-10T02:49:11.945Z,13.2
2018-06-10T02:50:12.960Z,13.2
2018-06-10T02:51:14.885Z,13.2
2018-06-10T02:52:14.952Z,13.2
2018-06-10T02:53:16.092Z,13.2
2018-06-10T02:54:17.878Z,13.2
2018-06-10T02:55:17.936Z,13.2
2018-06-10T02:56:18.938Z,13.2
2018-06-10T02:57:20.876Z,13.2
2018-06-10T02:58:21.291Z,13.2
2018-06-10T02:59:21.936Z,13.2
2018-06-10T03:00:22.649Z,13.2
2018-06-10T03:01:23.937Z,13.2
2018-06-10T03:02:24.930Z,13.2
2018-06-10T03:03:25.928Z,13.2
2018-06-10T03:04:26.931Z,13.2
2018-06-10T03:05:27.933Z,13.2
2018-06-10T03:06:28.937Z,13.2
2018-06-10T03:07:29.920Z,13.2
2018-06-10T03:08:31.076Z,13.2
2018-06-10T03:09:31.925Z,13.2
2018-06-10T03:10:32.929Z,13.2
2018-06-10T03:11:33.921Z,13.2
2018-06-10T03:12:34.917Z,13.2
2018-06-10T03:13:35.921Z,13.2
2018-06-10T03:14:36.916Z,13.2
2018-06-10T03:15:37.920Z,13.2
2018-06-10T03:16:38.921Z,13.2
2018-06-10T03:17:39.921Z,13.2
2018-06-10T03:18:41.063Z,13.3
2018-06-10T03:19:41.917Z,13.2
2018-06-10T03:20:42.911Z,13.2
2018-06-10T03:21:43.904Z,13.2
2018-06-10T03:22:44.908Z,13.2
2018-06-10T03:23:46.258Z,13.2
2018-06-10T03:24:46.904Z,13.2
2018-06-10T03:25:47.911Z,13.2
2018-06-10T03:26:48.910Z,13.2
2018-06-10T03:27:49.903Z,13.2
2018-06-10T03:28:50.897Z,13.2
2018-06-10T03:29:51.909Z,13.2
2018-06-10T03:30:52.902Z,13.2
2018-06-10T03:31:53.900Z,13.2
2018-06-10T03:32:54.901Z,13.2
2018-06-10T03:33:56.927Z,13.2
2018-06-10T03:34:56.895Z,13.2
2018-06-10T03:35:57.605Z,13.2
2018-06-10T03:36:58.896Z,13.2
2018-06-10T03:37:59.899Z,13.2
2018-06-10T03:39:00.893Z,13.2
2018-06-10T03:40:01.889Z,13.2
2018-06-10T03:41:02.891Z,13.2
2018-06-10T03:42:03.895Z,13.2
2018-06-10T03:43:04.889Z,13.2
2018-06-10T03:44:05.900Z,13.2
2018-06-10T03:45:06.889Z,13.2
2018-06-10T03:46:07.877Z,13.2
2018-06-10T03:47:08.882Z,13.2
2018-06-10T03:48:09.886Z,13.2
2018-06-10T03:49:10.883Z,13.2
2018-06-10T03:50:11.876Z,13.2
2018-06-10T03:51:12.877Z,13.2
2018-06-10T03:52:13.878Z,13.2
2018-06-10T03:53:14.875Z,13.2
2018-06-10T03:54:16.022Z,13.2
2018-06-10T03:55:16.871Z,13.2
2018-06-10T03:56:17.872Z,13.2
2018-06-10T03:57:18.867Z,13.2
2018-06-10T03:58:19.872Z,13.2
2018-06-10T03:59:20.866Z,13.2
2018-06-10T04:00:21.858Z,13.2
2018-06-10T04:01:22.866Z,13.2
2018-06-10T04:02:23.864Z,13.3
2018-06-10T04:03:24.861Z,13.3
2018-06-10T04:04:26.956Z,13.3
2018-06-10T04:05:26.863Z,13.3
2018-06-10T04:06:27.863Z,13.3
2018-06-10T04:07:28.856Z,13.3
2018-06-10T04:08:29.854Z,13.3
2018-06-10T04:09:30.857Z,13.3
2018-06-10T04:10:31.571Z,13.3
2018-06-10T04:11:32.857Z,13.3
2018-06-10T04:12:33.846Z,13.2
2018-06-10T04:13:34.849Z,13.2
2018-06-10T04:14:35.951Z,13.3
2018-06-10T04:15:36.854Z,13.3
2018-06-10T04:16:37.845Z,13.3
2018-06-10T04:17:38.871Z,13.2
2018-06-10T04:18:39.838Z,13.2
2018-06-10T04:19:41.199Z,13.3
2018-06-10T04:20:41.840Z,13.3
2018-06-10T04:21:42.841Z,13.2
2018-06-10T04:22:43.978Z,13.2
2018-06-10T04:23:44.837Z,13.2
2018-06-10T04:24:45.995Z,13.3
2018-06-10T04:25:46.840Z,13.3
2018-06-10T04:26:47.841Z,13.2
2018-06-10T04:27:48.843Z,13.2
2018-06-10T04:28:49.831Z,13.3
2018-06-10T04:29:50.848Z,13.3
2018-06-10T04:30:51.848Z,13.2
2018-06-10T04:31:52.830Z,13.2
2018-06-10T04:32:53.825Z,13.2
2018-06-10T04:33:54.822Z,13.2
2018-06-10T04:34:55.975Z,13.2
2018-06-10T04:35:56.827Z,13.2
2018-06-10T04:36:57.821Z,13.2
2018-06-10T04:37:58.536Z,13.2
2018-06-10T04:38:59.827Z,13.2
2018-06-10T04:40:00.827Z,13.2
2018-06-10T04:41:01.833Z,13.2
2018-06-10T04:42:02.824Z,13.2
2018-06-10T04:43:03.816Z,13.3
2018-06-10T04:44:04.820Z,13.2
2018-06-10T04:45:06.166Z,13.2
2018-06-10T04:46:06.814Z,13.2
2018-06-10T04:47:07.957Z,13.2
2018-06-10T04:48:08.806Z,13.3
2018-06-10T04:49:09.807Z,13.3
2018-06-10T04:50:10.911Z,13.3
2018-06-10T04:51:11.807Z,13.3
2018-06-10T04:52:12.804Z,13.3
2018-06-10T04:53:13.826Z,13.2
2018-06-10T04:54:14.804Z,13.3
2018-06-10T04:55:15.809Z,13.2
2018-06-10T04:56:16.801Z,13.2
2018-06-10T04:57:17.846Z,13.3
2018-06-10T04:58:18.802Z,13.3
2018-06-10T04:59:19.510Z,13.3
2018-06-10T05:00:21.161Z,13.3
2018-06-10T05:01:21.809Z,13.3
2018-06-10T05:02:22.797Z,13.2
2018-06-10T05:03:23.795Z,13.3
2018-06-10T05:04:24.791Z,13.3
2018-06-10T05:05:25.806Z,13.3
2018-06-10T05:06:26.789Z,13.3
2018-06-10T05:07:27.791Z,13.3
2018-06-10T05:08:28.790Z,13.3
2018-06-10T05:09:29.785Z,13.3
2018-06-10T05:10:30.790Z,13.3
2018-06-10T05:11:31.790Z,13.3
2018-06-10T05:12:32.785Z,13.3
2018-06-10T05:13:33.798Z,13.3
2018-06-10T05:14:34.784Z,13.3
2018-06-10T05:15:36.135Z,13.3
2018-06-10T05:16:36.801Z,13.3
2018-06-10T05:17:37.781Z,13.3
2018-06-10T05:18:38.774Z,13.3
2018-06-10T05:19:39.963Z,13.3
2018-06-10T05:20:40.778Z,13.3
2018-06-10T05:21:41.490Z,13.4
2018-06-10T05:22:42.783Z,13.6
2018-06-10T05:23:43.786Z,13.5
2018-06-10T05:24:44.776Z,13.5
2018-06-10T05:25:45.917Z,13.5
2018-06-10T05:26:46.764Z,13.5
2018-06-10T05:27:47.769Z,13.3
2018-06-10T05:28:48.768Z,13.4
2018-06-10T05:29:49.771Z,13.3
2018-06-10T05:30:50.764Z,13.3
2018-06-10T05:31:51.760Z,13.6
2018-06-10T05:32:52.760Z,13.3
2018-06-10T05:33:53.768Z,13.3
2018-06-10T05:34:54.759Z,13.3
2018-06-10T05:35:55.921Z,13.3
2018-06-10T05:36:56.757Z,13.3
2018-06-10T05:37:57.754Z,13.3
2018-06-10T05:38:58.771Z,13.3
2018-06-10T05:39:59.754Z,13.3
2018-06-10T05:41:00.756Z,13.3
2018-06-10T05:42:01.755Z,13.4
2018-06-10T05:43:02.749Z,13.3
2018-06-10T05:44:03.462Z,13.3
2018-06-10T05:45:04.750Z,13.3
2018-06-10T05:46:05.850Z,13.3
2018-06-10T05:47:06.752Z,13.4
2018-06-10T05:48:07.758Z,13.3
2018-06-10T05:49:08.456Z,13.3
2018-06-10T05:50:09.743Z,13.3
2018-06-10T05:51:10.844Z,13.3
2018-06-10T05:52:11.743Z,13.3
2018-06-10T05:53:12.756Z,13.4
2018-06-10T05:54:13.735Z,13.4
2018-06-10T05:55:14.743Z,13.4
2018-06-10T05:56:15.737Z,13.4
2018-06-10T05:57:16.735Z,13.6
2018-06-10T05:58:17.736Z,13.4
2018-06-10T05:59:18.731Z,13.6
2018-06-10T06:00:19.744Z,13.6
2018-06-10T06:01:20.728Z,13.6
2018-06-10T06:02:21.727Z,13.5
2018-06-10T06:03:22.724Z,13.6
2018-06-10T06:04:23.441Z,13.5
2018-06-10T06:05:24.730Z,13.4
2018-06-10T06:06:25.724Z,13.6
2018-06-10T06:07:26.721Z,13.6
2018-06-10T06:08:27.743Z,13.4
2018-06-10T06:09:28.728Z,13.6
2018-06-10T06:10:29.726Z,13.5
2018-06-10T06:11:30.723Z,13.4
2018-06-10T06:12:31.712Z,13.6
2018-06-10T06:13:32.719Z,13.6
2018-06-10T06:14:33.710Z,13.5
2018-06-10T06:15:34.729Z,13.5
2018-06-10T06:16:35.863Z,13.4
2018-06-10T06:17:36.716Z,13.5
2018-06-10T06:18:37.718Z,13.6
2018-06-10T06:19:38.718Z,13.5
2018-06-10T06:20:39.714Z,13.6
2018-06-10T06:21:40.707Z,13.5
2018-06-10T06:22:41.710Z,13.6
2018-06-10T06:23:42.720Z,13.5
2018-06-10T06:24:43.706Z,13.4
2018-06-10T06:25:44.711Z,13.4
2018-06-10T06:26:45.910Z,13.7
2018-06-10T06:27:46.710Z,13.7
2018-06-10T06:28:47.412Z,13.5
2018-06-10T06:29:48.700Z,13.6
2018-06-10T06:30:49.695Z,13.6
2018-06-10T06:31:51.053Z,13.5
2018-06-10T06:32:51.699Z,13.4
2018-06-10T06:33:52.695Z,13.6
2018-06-10T06:34:53.695Z,13.5
2018-06-10T06:35:54.692Z,13.5
2018-06-10T06:36:55.835Z,13.7
2018-06-10T06:37:56.689Z,13.5
2018-06-10T06:38:57.399Z,13.4
2018-06-10T06:39:58.686Z,13.5
2018-06-10T06:40:59.683Z,13.6
2018-06-10T06:42:01.032Z,13.5
2018-06-10T06:43:01.682Z,13.5
2018-06-10T06:44:02.680Z,13.5
2018-06-10T06:45:03.681Z,13.5
2018-06-10T06:46:04.678Z,13.6
2018-06-10T06:47:05.840Z,13.5
2018-06-10T06:48:06.680Z,13.5
2018-06-10T06:49:07.677Z,13.5
2018-06-10T06:50:08.675Z,13.5
2018-06-10T06:51:09.687Z,13.5
2018-06-10T06:52:10.839Z,13.4
2018-06-10T06:53:11.687Z,13.7
2018-06-10T06:54:12.671Z,13.5
2018-06-10T06:55:13.670Z,13.4
2018-06-10T06:56:14.690Z,13.4
2018-06-10T06:57:15.768Z,13.3
2018-06-10T06:58:16.683Z,13.3
2018-06-10T06:59:17.684Z,13.4
2018-06-10T07:00:18.670Z,13.5
2018-06-10T07:01:19.664Z,13.6
2018-06-10T07:02:20.818Z,13.5
2018-06-10T07:03:21.664Z,13.4
2018-06-10T07:04:22.673Z,13.4
2018-06-10T07:05:23.663Z,13.4
2018-06-10T07:06:24.677Z,13.5
2018-06-10T07:07:26.011Z,13.6
2018-06-10T07:08:26.670Z,13.4
2018-06-10T07:09:27.659Z,13.4
2018-06-10T07:10:28.654Z,13.4
2018-06-10T07:11:29.655Z,13.4
2018-06-10T07:12:30.853Z,13.6
2018-06-10T07:13:31.658Z,13.4
2018-06-10T07:14:32.663Z,13.4
2018-06-10T07:15:33.661Z,13.4
2018-06-10T07:16:34.691Z,13.4
2018-06-10T07:17:35.994Z,13.5
2018-06-10T07:18:36.645Z,13.6
2018-06-10T07:19:37.650Z,13.4
2018-06-10T07:20:38.650Z,13.4
2018-06-10T07:21:39.645Z,13.4
2018-06-10T07:22:41.000Z,13.4
2018-06-10T07:23:41.755Z,13.6
2018-06-10T07:24:42.640Z,13.5
2018-06-10T07:25:43.643Z,13.4
2018-06-10T07:26:44.352Z,13.4
2018-06-10T07:27:45.691Z,13.4
2018-06-10T07:28:46.658Z,13.5
2018-06-10T07:29:47.635Z,13.6
2018-06-10T07:30:48.644Z,13.4
2018-06-10T07:31:49.637Z,13.4
2018-06-10T07:32:50.633Z,13.4
2018-06-10T07:33:51.628Z,13.4
2018-06-10T07:34:52.633Z,13.6
2018-06-10T07:35:53.622Z,13.4
2018-06-10T07:36:54.625Z,13.4
2018-06-10T07:37:55.624Z,13.4
2018-06-10T07:38:56.338Z,13.4
2018-06-10T07:39:57.641Z,13.6
2018-06-10T07:40:58.623Z,13.6
2018-06-10T07:41:59.622Z,13.4
2018-06-10T07:43:00.983Z,13.7
2018-06-10T07:44:01.619Z,13.5
2018-06-10T07:45:02.331Z,13.5
2018-06-10T07:46:03.612Z,13.4
2018-06-10T07:47:04.613Z,13.4
2018-06-10T07:48:05.615Z,13.6
2018-06-10T07:49:06.662Z,13.8
2018-06-10T07:50:07.612Z,13.5
2018-06-10T07:51:08.616Z,13.4
2018-06-10T07:52:09.606Z,13.4
2018-06-10T07:53:10.769Z,13.4
2018-06-10T07:54:11.604Z,13.6
2018-06-10T07:55:12.606Z,13.4
2018-06-10T07:56:13.603Z,13.3
2018-06-10T08:15:32.800Z,0
2018-06-10T08:16:33.754Z,0
2018-06-10T08:17:34.725Z,0
2018-06-10T08:20:18.676Z,0
2018-06-10T08:21:19.592Z,0
2018-06-10T08:22:20.590Z,0
2018-06-10T08:23:21.593Z,0
2018-06-10T08:50:54.473Z,0
2018-06-10T08:51:44.382Z,13.8
2018-06-10T08:52:45.286Z,13.8
2018-06-10T08:53:46.281Z,13.5
2018-06-10T08:54:47.284Z,13.7
2018-06-10T08:55:48.282Z,13.8
2018-06-10T08:56:49.012Z,13.7
2018-06-10T08:57:50.285Z,13.7
2018-06-10T08:58:51.283Z,13.7
2018-06-10T08:59:52.298Z,13.8
2018-06-10T09:00:53.282Z,13.5
2018-06-10T09:01:54.276Z,13.5
2018-06-10T09:02:55.391Z,13.5
2018-06-10T09:03:56.273Z,13.5
2018-06-10T09:04:57.279Z,13.6
2018-06-10T09:05:58.270Z,13.6
2018-06-10T09:06:59.287Z,13.5
2018-06-10T09:08:00.268Z,13.6
2018-06-10T09:09:01.264Z,13.4
2018-06-10T09:10:02.277Z,13.6
2018-06-10T09:11:03.271Z,14
2018-06-10T09:12:04.266Z,13.5
2018-06-10T09:13:05.266Z,13.5
2018-06-10T09:14:06.265Z,13.5
2018-06-10T09:15:07.366Z,13.4
2018-06-10T09:16:07.996Z,13.3
2018-06-10T09:17:09.263Z,13.3
2018-06-10T09:18:10.261Z,13.3
2018-06-10T09:19:11.255Z,13.3
2018-06-10T09:27:21.221Z,13.3
2018-06-10T09:28:22.135Z,13.3
2018-06-10T09:29:23.134Z,13.3
2018-06-10T09:30:24.146Z,13.3
2018-06-10T09:31:24.856Z,13.3
2018-06-10T09:32:26.282Z,13.3
2018-06-10T09:33:27.119Z,13.3
2018-06-10T09:34:28.124Z,13.3
2018-06-10T09:35:29.276Z,13.2
2018-06-10T09:36:30.125Z,13.2
2018-06-10T09:37:31.470Z,13.2
2018-06-10T09:38:32.157Z,13.2
2018-06-10T09:39:33.124Z,13.3
2018-06-10T09:40:34.111Z,13.2
2018-06-10T09:41:35.115Z,13.3
2018-06-10T09:42:36.117Z,13.3
2018-06-10T09:43:37.112Z,13.3
2018-06-10T09:44:38.109Z,13.2
2018-06-10T09:45:39.115Z,13.3
2018-06-10T09:46:40.121Z,13.3
2018-06-10T09:47:41.113Z,13.3
2018-06-10T09:48:42.111Z,13.3
2018-06-10T09:49:43.107Z,13.3
2018-06-10T09:50:44.115Z,13.3
2018-06-10T09:51:45.106Z,13.3
2018-06-10T09:52:46.270Z,13.3
2018-06-10T09:53:47.099Z,13.3
2018-06-10T09:54:48.097Z,13.3
2018-06-10T09:55:49.116Z,13.3
2018-06-10T09:56:50.145Z,13.3
2018-06-10T09:57:51.104Z,13.3
2018-06-10T09:58:52.097Z,13.3
2018-06-10T09:59:53.091Z,13.3
2018-06-10T10:00:54.095Z,13.3
2018-06-10T10:01:55.111Z,13.3
2018-06-10T10:02:56.291Z,13.3
2018-06-10T10:03:57.102Z,13.3
2018-06-10T10:04:58.090Z,13.4
2018-06-10T10:05:59.094Z,13.3
2018-06-10T10:07:00.086Z,13.3
2018-06-10T10:08:01.080Z,13.3
2018-06-10T10:09:02.090Z,13.3
2018-06-10T10:10:03.085Z,13.3
2018-06-10T10:11:04.081Z,13.3
2018-06-10T10:12:05.080Z,13.3
2018-06-10T10:13:05.907Z,13.3
2018-06-10T10:14:07.081Z,13.4
2018-06-10T10:15:08.083Z,13.3
2018-06-10T10:16:09.079Z,13.3
2018-06-10T10:17:10.081Z,13.4
2018-06-10T10:18:11.071Z,13.4
2018-06-10T10:19:12.072Z,13.4
2018-06-10T10:20:13.072Z,13.3
2018-06-10T10:21:14.076Z,13.3
2018-06-10T10:22:15.067Z,13.4
2018-06-10T10:23:16.081Z,13.5
2018-06-10T10:24:17.067Z,13.4
2018-06-10T10:25:18.063Z,13.7
2018-06-10T10:26:19.063Z,13.5
2018-06-10T10:27:20.063Z,13.6
2018-06-10T10:28:21.065Z,13.6
2018-06-10T10:29:22.065Z,13.6
2018-06-10T10:30:23.065Z,13.6
2018-06-10T10:31:24.056Z,13.6
2018-06-10T10:32:25.057Z,13.5
2018-06-10T10:33:26.055Z,13.4
2018-06-10T10:34:27.052Z,13.5
2018-06-10T10:35:28.055Z,13.3
2018-06-10T10:36:29.060Z,13.3
2018-06-10T10:37:30.049Z,13.3
2018-06-10T10:38:31.275Z,13.4
2018-06-10T10:39:32.050Z,13.3
2018-06-10T10:40:33.054Z,13.3
2018-06-10T10:41:34.047Z,13.3
2018-06-10T10:42:35.044Z,13.4
2018-06-10T10:43:36.254Z,13.4
2018-06-10T10:44:36.790Z,13.6
2018-06-10T10:45:38.048Z,13.5
2018-06-10T10:46:39.039Z,13.5
2018-06-10T10:47:40.045Z,13.9
2018-06-10T10:48:41.045Z,13.7
2018-06-10T10:49:42.047Z,13.8
2018-06-10T10:50:43.041Z,13.9
2018-06-10T10:51:44.026Z,13.7
2018-06-10T10:52:45.036Z,13.8
2018-06-10T10:53:46.032Z,13.9
2018-06-10T10:54:47.030Z,13.8
2018-06-10T10:55:48.039Z,13.7
2018-06-10T10:56:49.035Z,13.7
2018-06-10T10:57:50.024Z,13.9
2018-06-10T10:58:51.126Z,14
2018-06-10T10:59:52.061Z,13.7
2018-06-10T11:00:53.030Z,13.6
2018-06-10T11:01:54.120Z,13.5
2018-06-10T11:02:55.017Z,13.8
2018-06-10T11:03:56.172Z,14
2018-06-10T11:04:57.016Z,13.4
2018-06-10T11:05:58.026Z,13.6
2018-06-10T11:06:59.019Z,13.6
2018-06-10T11:08:00.017Z,13.9
2018-06-10T11:09:01.164Z,13.7
2018-06-10T11:10:02.010Z,13.8
2018-06-10T11:11:03.008Z,13.6
2018-06-10T11:12:04.023Z,13.5
2018-06-10T11:13:05.011Z,13.7
2018-06-10T11:14:06.021Z,13.5
2018-06-10T11:15:07.025Z,13.4
2018-06-10T11:16:08.023Z,13.5
2018-06-10T11:17:09.019Z,13.5
2018-06-10T11:18:10.001Z,13.4
2018-06-10T11:19:11.150Z,13.6
2018-06-10T11:20:11.996Z,13.4
2018-06-10T11:21:13.000Z,13.6
2018-06-10T11:22:13.992Z,13.4
2018-06-10T11:23:15.011Z,13.4
2018-06-10T11:24:16.346Z,13.6
2018-06-10T11:25:16.995Z,13.6
2018-06-10T11:26:18.002Z,13.5
2018-06-10T11:27:19.096Z,13.6
2018-06-10T11:28:19.994Z,13.6
2018-06-10T11:29:21.099Z,13.6
2018-06-10T11:30:21.994Z,13.6
2018-06-10T11:31:23.006Z,13.6
2018-06-10T11:32:23.715Z,13.6
2018-06-10T11:33:24.979Z,13.5
2018-06-10T11:34:26.149Z,13.5
2018-06-10T11:35:26.717Z,13.5
2018-06-10T11:36:27.980Z,13.4
2018-06-10T11:37:28.706Z,13.5
2018-06-10T11:38:30.025Z,13.6
2018-06-10T11:39:30.709Z,13.7
2018-06-10T11:40:31.977Z,13.7
2018-06-10T11:41:32.979Z,13.5
2018-06-10T11:42:34.152Z,13.5
2018-06-10T11:43:34.978Z,13.5
2018-06-10T11:44:36.083Z,13.5
2018-06-10T11:45:36.968Z,13.4
2018-06-10T11:46:37.971Z,13.7
2018-06-10T11:47:38.975Z,13.5
2018-06-10T11:48:39.971Z,13.5
2018-06-10T11:49:41.111Z,13.6
2018-06-10T11:50:41.976Z,13.6
2018-06-10T11:51:42.963Z,13.8
2018-06-10T11:52:43.964Z,14
2018-06-10T11:53:44.974Z,13.6
2018-06-10T11:54:46.110Z,14
2018-06-10T11:55:46.956Z,13.4
2018-06-10T11:56:47.954Z,13.5
2018-06-10T11:57:48.960Z,13.6
2018-06-10T11:58:49.978Z,13.5
2018-06-10T11:59:51.054Z,13.4
2018-06-10T12:00:51.955Z,13.4
2018-06-10T12:01:53.007Z,13.6
2018-06-10T12:02:53.949Z,13.4
2018-06-10T12:03:54.953Z,13.7
2018-06-10T12:04:55.945Z,13.6
2018-06-10T12:05:56.945Z,13.5
2018-06-10T12:06:57.677Z,13.5
2018-06-10T12:07:59.069Z,13.5
2018-06-10T12:08:59.942Z,13.6
2018-06-10T12:10:01.100Z,13.4
2018-06-10T12:11:01.940Z,13.5
2018-06-10T12:12:02.938Z,13.4
2018-06-10T12:13:03.929Z,13.4
2018-06-10T12:14:04.932Z,13.4
2018-06-10T12:15:05.978Z,13.4
2018-06-10T12:16:06.660Z,13.4
2018-06-10T12:17:07.947Z,13.4
2018-06-10T12:18:08.931Z,13.6
2018-06-10T12:19:09.953Z,13.4
2018-06-10T12:20:11.109Z,13.6
2018-06-10T12:21:11.933Z,13.4
2018-06-10T12:22:12.941Z,13.5
2018-06-10T12:23:13.925Z,13.4
2018-06-10T12:24:14.928Z,13.5
2018-06-10T12:25:15.927Z,13.4
2018-06-10T12:26:16.924Z,13.4
2018-06-10T12:27:17.928Z,13.7
2018-06-10T12:28:18.918Z,13.5
2018-06-10T12:29:20.041Z,13.4
2018-06-10T12:30:20.916Z,13.4
2018-06-10T12:31:21.916Z,13.4
2018-06-10T12:32:22.926Z,13.5
2018-06-10T12:33:23.917Z,13.5
2018-06-10T12:34:24.912Z,13.4
2018-06-10T12:35:26.019Z,13.7
2018-06-10T12:36:26.642Z,13.5
2018-06-10T12:37:27.909Z,13.4
2018-06-10T12:38:28.924Z,13.4
2018-06-10T12:39:29.641Z,13.4
2018-06-10T12:40:31.268Z,13.4
2018-06-10T12:41:32.030Z,13.6
2018-06-10T12:42:32.909Z,13.4
2018-06-10T12:43:33.906Z,13.7
2018-06-10T12:44:34.905Z,13.6
2018-06-10T12:45:35.895Z,13.6
2018-06-10T12:46:36.903Z,13.4
2018-06-10T12:47:37.904Z,13.5
2018-06-10T12:48:38.895Z,13.5
2018-06-10T12:49:39.895Z,13.7
2018-06-10T12:50:41.044Z,13.4
2018-06-10T12:51:41.889Z,13.5
2018-06-10T12:52:42.897Z,13.4
2018-06-10T12:53:43.905Z,13.4
2018-06-10T12:54:44.894Z,13.7
2018-06-10T12:55:45.885Z,13.5
2018-06-10T12:56:46.890Z,13.6
2018-06-10T12:57:47.897Z,13.6
2018-06-10T12:58:48.890Z,13.5
2018-06-10T12:59:49.885Z,13.5
2018-06-10T13:00:51.040Z,13.7
2018-06-10T13:01:51.607Z,13.6
2018-06-10T13:02:52.876Z,13.4
2018-06-10T13:03:53.882Z,13.6
2018-06-10T13:04:54.877Z,13.5
2018-06-10T13:05:56.026Z,13.5
2018-06-10T13:06:56.874Z,13.6
2018-06-10T13:07:57.871Z,13.5
2018-06-10T13:08:58.872Z,13.4
2018-06-10T13:09:59.889Z,13.6
2018-06-10T13:11:00.866Z,13.5
2018-06-10T13:12:01.891Z,13.6
2018-06-10T13:13:02.862Z,13.7
2018-06-10T13:14:03.599Z,13.6
2018-06-10T13:15:04.883Z,13.4
2018-06-10T13:16:05.873Z,13.5
2018-06-10T13:17:06.883Z,13.5
2018-06-10T13:18:07.864Z,13.5
2018-06-10T13:19:08.868Z,13.5
2018-06-10T13:20:09.866Z,13.5
2018-06-10T13:21:11.205Z,13.6
2018-06-10T13:22:11.868Z,13.6
2018-06-10T13:23:12.874Z,13.6
2018-06-10T13:24:13.892Z,13.5
2018-06-10T13:25:14.854Z,13.6
2018-06-10T13:26:15.863Z,13.6
2018-06-10T13:27:16.852Z,13.5
2018-06-10T13:28:17.850Z,13.6
2018-06-10T13:29:18.846Z,13.6
2018-06-10T13:30:19.852Z,13.6
2018-06-10T13:31:20.996Z,13.6
2018-06-10T13:32:21.568Z,13.6
2018-06-10T13:33:22.841Z,13.6
2018-06-10T13:34:23.857Z,13.5
2018-06-10T13:35:24.843Z,13.5
2018-06-10T13:36:25.855Z,13.5
2018-06-10T13:37:26.849Z,13.5
2018-06-10T13:38:27.839Z,13.6
2018-06-10T13:39:28.840Z,13.6
2018-06-10T13:40:29.920Z,13.5
2018-06-10T13:41:31.009Z,13.5
2018-06-10T13:42:31.833Z,13.5
2018-06-10T13:43:32.834Z,13.6
2018-06-10T13:44:33.833Z,13.5
2018-06-10T13:45:34.828Z,13.7
2018-06-10T13:46:35.833Z,13.5
2018-06-10T13:47:36.829Z,13.6
2018-06-10T13:48:37.846Z,13.6
2018-06-10T13:49:38.832Z,13.7
2018-06-10T13:50:39.823Z,13.6
2018-06-10T13:51:40.819Z,13.5
2018-06-10T13:52:41.843Z,13.5
2018-06-10T13:53:42.814Z,13.5
2018-06-10T13:54:43.828Z,13.6
2018-06-10T13:55:44.828Z,13.6
2018-06-10T13:56:45.816Z,13.6
2018-06-10T13:57:46.835Z,13.6
2018-06-10T13:58:47.819Z,13.5
2018-06-10T13:59:48.825Z,13.7
2018-06-10T14:00:49.817Z,13.7
2018-06-10T14:01:51.166Z,13.7
2018-06-10T14:02:51.813Z,13.6
2018-06-10T14:03:52.808Z,13.5
2018-06-10T14:04:53.807Z,13.6
2018-06-10T14:05:54.821Z,13.6
2018-06-10T14:06:55.812Z,13.6
2018-06-10T14:07:56.815Z,13.4
2018-06-10T14:08:57.810Z,13.5
2018-06-10T14:09:59.100Z,13.5
2018-06-10T14:10:59.801Z,13.5
2018-06-10T14:12:00.993Z,13.4
2018-06-10T14:13:01.803Z,13.4
2018-06-10T14:14:02.794Z,13.4
2018-06-10T14:15:03.524Z,13.5
2018-06-10T14:16:04.801Z,13.5
2018-06-10T14:17:05.811Z,13.4
2018-06-10T14:18:06.798Z,13.5
2018-06-10T14:19:07.794Z,13.5
2018-06-10T14:20:08.787Z,13.5
2018-06-10T14:21:09.788Z,13.5
2018-06-10T14:22:10.799Z,13.7
2018-06-10T14:23:11.786Z,13.5
2018-06-10T14:24:12.806Z,13.6
2018-06-10T14:25:13.782Z,13.6
2018-06-10T14:26:14.795Z,13.5